Terminal Aerodrome Forecast
Issued by NWS Charleston, WV

Current Version | Previous Version | Graphics & Text | Print | Product List | Glossary On
Versions: 1 2 3 4 5 6 7 8 9 10 11 12 13 14 15 16 17 18 19 20 21 22 23 24
337
FTUS41 KRLX 270551
TAFPKB
TAF
KPKB 270551Z 2706/2806 11005KT P6SM FEW250
     FM271200 16005KT P6SM BKN250
     FM271500 19010KT P6SM BKN050
     FM271800 20010KT P6SM SHRA OVC050
     FM271900 21009KT 4SM SHRA BR VCTS BKN040CB
     FM272100 21009KT P6SM BKN035
     FM280200 25005KT P6SM SCT250=

USA.gov is the U.S. government's official web portal to all federal, state and local government web resources and services.